sensor_id;sensor_type;location;lat;lon;timestamp;P1;durP1;ratioP1;P2;durP2;ratioP2
23519;SDS011;11936;50.820;4.336;2023-02-28T00:01:30;6.85;;;4.28;;
23519;SDS011;11936;50.820;4.336;2023-02-28T00:03:56;6.47;;;4.00;;
23519;SDS011;11936;50.820;4.336;2023-02-28T00:06:22;9.55;;;4.90;;
23519;SDS011;11936;50.820;4.336;2023-02-28T00:08:51;7.18;;;4.15;;
23519;SDS011;11936;50.820;4.336;2023-02-28T00:11:17;8.48;;;4.82;;
23519;SDS011;11936;50.820;4.336;2023-02-28T00:13:44;9.77;;;4.72;;
23519;SDS011;11936;50.820;4.336;2023-02-28T00:16:15;8.80;;;5.50;;
23519;SDS011;11936;50.820;4.336;2023-02-28T00:18:46;7.63;;;4.30;;
23519;SDS011;11936;50.820;4.336;2023-02-28T00:21:15;8.10;;;4.18;;
23519;SDS011;11936;50.820;4.336;2023-02-28T00:23:42;6.13;;;3.78;;
23519;SDS011;11936;50.820;4.336;2023-02-28T00:26:08;7.28;;;4.20;;
23519;SDS011;11936;50.820;4.336;2023-02-28T00:28:34;9.00;;;4.60;;
23519;SDS011;11936;50.820;4.336;2023-02-28T00:30:59;8.55;;;5.50;;
23519;SDS011;11936;50.820;4.336;2023-02-28T00:33:25;9.07;;;6.32;;
23519;SDS011;11936;50.820;4.336;2023-02-28T00:35:52;16.20;;;9.43;;
23519;SDS011;11936;50.820;4.336;2023-02-28T00:38:25;21.08;;;12.93;;
23519;SDS011;11936;50.820;4.336;2023-02-28T00:40:51;18.73;;;11.65;;
23519;SDS011;11936;50.820;4.336;2023-02-28T00:43:16;17.83;;;10.93;;
23519;SDS011;11936;50.820;4.336;2023-02-28T00:45:42;14.00;;;8.70;;
23519;SDS011;11936;50.820;4.336;2023-02-28T00:48:08;17.30;;;8.82;;
23519;SDS011;11936;50.820;4.336;2023-02-28T00:50:34;12.45;;;7.45;;
23519;SDS011;11936;50.820;4.336;2023-02-28T00:52:59;12.60;;;6.30;;
23519;SDS011;11936;50.820;4.336;2023-02-28T00:55:25;10.48;;;5.88;;
23519;SDS011;11936;50.820;4.336;2023-02-28T00:57:50;10.85;;;6.20;;
23519;SDS011;11936;50.820;4.336;2023-02-28T01:00:16;10.40;;;4.95;;
23519;SDS011;11936;50.820;4.336;2023-02-28T01:02:42;8.20;;;5.18;;
23519;SDS011;11936;50.820;4.336;2023-02-28T01:05:08;9.02;;;5.15;;
23519;SDS011;11936;50.820;4.336;2023-02-28T01:07:33;11.15;;;5.88;;
23519;SDS011;11936;50.820;4.336;2023-02-28T01:09:59;11.65;;;5.78;;
23519;SDS011;11936;50.820;4.336;2023-02-28T01:12:24;9.25;;;5.43;;
23519;SDS011;11936;50.820;4.336;2023-02-28T01:14:50;9.77;;;5.85;;
23519;SDS011;11936;50.820;4.336;2023-02-28T01:17:15;12.43;;;4.85;;
23519;SDS011;11936;50.820;4.336;2023-02-28T01:19:41;10.05;;;5.38;;
23519;SDS011;11936;50.820;4.336;2023-02-28T01:22:07;9.55;;;4.47;;
23519;SDS011;11936;50.820;4.336;2023-02-28T01:24:33;6.20;;;4.65;;
23519;SDS011;11936;50.820;4.336;2023-02-28T01:26:58;9.55;;;4.85;;
23519;SDS011;11936;50.820;4.336;2023-02-28T01:29:24;9.07;;;4.53;;
23519;SDS011;11936;50.820;4.336;2023-02-28T01:31:50;16.92;;;4.90;;
23519;SDS011;11936;50.820;4.336;2023-02-28T01:34:15;7.22;;;4.10;;
23519;SDS011;11936;50.820;4.336;2023-02-28T01:36:41;10.07;;;4.95;;
23519;SDS011;11936;50.820;4.336;2023-02-28T01:39:07;10.82;;;4.88;;
23519;SDS011;11936;50.820;4.336;2023-02-28T01:41:33;6.40;;;4.15;;
23519;SDS011;11936;50.820;4.336;2023-02-28T01:46:34;10.05;;;4.70;;
23519;SDS011;11936;50.820;4.336;2023-02-28T01:49:01;9.38;;;4.95;;
23519;SDS011;11936;50.820;4.336;2023-02-28T01:51:41;8.20;;;4.32;;
23519;SDS011;11936;50.820;4.336;2023-02-28T01:54:12;5.38;;;4.47;;
23519;SDS011;11936;50.820;4.336;2023-02-28T01:56:44;6.53;;;5.15;;
23519;SDS011;11936;50.820;4.336;2023-02-28T01:59:14;6.45;;;4.20;;
23519;SDS011;11936;50.820;4.336;2023-02-28T02:01:48;7.85;;;4.80;;
23519;SDS011;11936;50.820;4.336;2023-02-28T02:04:14;6.63;;;4.50;;
23519;SDS011;11936;50.820;4.336;2023-02-28T02:06:42;6.75;;;4.47;;
23519;SDS011;11936;50.820;4.336;2023-02-28T02:09:11;9.30;;;5.03;;
23519;SDS011;11936;50.820;4.336;2023-02-28T02:11:37;8.82;;;4.50;;
23519;SDS011;11936;50.820;4.336;2023-02-28T02:22:40;6.47;;;4.68;;
23519;SDS011;11936;50.820;4.336;2023-02-28T02:36:35;7.30;;;4.63;;
23519;SDS011;11936;50.820;4.336;2023-02-28T02:39:13;7.97;;;5.70;;
23519;SDS011;11936;50.820;4.336;2023-02-28T02:41:49;8.80;;;4.75;;
23519;SDS011;11936;50.820;4.336;2023-02-28T02:47:10;8.77;;;4.93;;
23519;SDS011;11936;50.820;4.336;2023-02-28T02:49:39;9.43;;;5.38;;
23519;SDS011;11936;50.820;4.336;2023-02-28T02:52:12;8.20;;;5.03;;
23519;SDS011;11936;50.820;4.336;2023-02-28T02:54:43;7.47;;;5.25;;
23519;SDS011;11936;50.820;4.336;2023-02-28T02:57:13;11.65;;;5.15;;
23519;SDS011;11936;50.820;4.336;2023-02-28T02:59:46;13.30;;;5.22;;
23519;SDS011;11936;50.820;4.336;2023-02-28T03:02:14;11.93;;;5.65;;
23519;SDS011;11936;50.820;4.336;2023-02-28T03:04:42;7.43;;;5.40;;
23519;SDS011;11936;50.820;4.336;2023-02-28T03:07:11;9.65;;;5.53;;
23519;SDS011;11936;50.820;4.336;2023-02-28T03:09:36;7.05;;;5.10;;
23519;SDS011;11936;50.820;4.336;2023-02-28T03:12:02;9.80;;;5.32;;
23519;SDS011;11936;50.820;4.336;2023-02-28T03:17:03;8.50;;;5.30;;
23519;SDS011;11936;50.820;4.336;2023-02-28T03:25:09;11.75;;;5.40;;
23519;SDS011;11936;50.820;4.336;2023-02-28T03:27:51;14.25;;;5.93;;
23519;SDS011;11936;50.820;4.336;2023-02-28T03:30:41;10.63;;;5.40;;
23519;SDS011;11936;50.820;4.336;2023-02-28T03:33:11;7.43;;;4.97;;
23519;SDS011;11936;50.820;4.336;2023-02-28T03:35:48;11.90;;;6.10;;
23519;SDS011;11936;50.820;4.336;2023-02-28T03:38:22;8.75;;;5.13;;
23519;SDS011;11936;50.820;4.336;2023-02-28T03:40:55;8.70;;;5.72;;
23519;SDS011;11936;50.820;4.336;2023-02-28T03:43:28;11.30;;;6.03;;
23519;SDS011;11936;50.820;4.336;2023-02-28T03:45:58;8.90;;;6.15;;
23519;SDS011;11936;50.820;4.336;2023-02-28T03:48:31;9.65;;;5.47;;
23519;SDS011;11936;50.820;4.336;2023-02-28T03:51:04;13.38;;;6.50;;
23519;SDS011;11936;50.820;4.336;2023-02-28T03:53:35;13.65;;;6.70;;
23519;SDS011;11936;50.820;4.336;2023-02-28T03:56:09;7.78;;;5.90;;
23519;SDS011;11936;50.820;4.336;2023-02-28T03:59:00;13.05;;;6.60;;
23519;SDS011;11936;50.820;4.336;2023-02-28T04:01:34;10.10;;;5.78;;
23519;SDS011;11936;50.820;4.336;2023-02-28T04:04:06;10.18;;;5.72;;
23519;SDS011;11936;50.820;4.336;2023-02-28T04:06:34;11.68;;;6.07;;
23519;SDS011;11936;50.820;4.336;2023-02-28T04:09:01;9.93;;;6.25;;
23519;SDS011;11936;50.820;4.336;2023-02-28T04:14:05;8.90;;;6.15;;
23519;SDS011;11936;50.820;4.336;2023-02-28T04:16:33;10.75;;;6.18;;
23519;SDS011;11936;50.820;4.336;2023-02-28T04:19:00;11.55;;;6.90;;
23519;SDS011;11936;50.820;4.336;2023-02-28T04:21:30;9.45;;;6.15;;
23519;SDS011;11936;50.820;4.336;2023-02-28T04:23:57;17.40;;;6.25;;
23519;SDS011;11936;50.820;4.336;2023-02-28T04:26:25;11.43;;;6.45;;
23519;SDS011;11936;50.820;4.336;2023-02-28T04:28:58;10.02;;;6.60;;
23519;SDS011;11936;50.820;4.336;2023-02-28T04:31:24;13.05;;;6.30;;
23519;SDS011;11936;50.820;4.336;2023-02-28T04:33:50;15.85;;;7.43;;
23519;SDS011;11936;50.820;4.336;2023-02-28T04:36:16;15.13;;;7.25;;
23519;SDS011;11936;50.820;4.336;2023-02-28T04:38:45;9.65;;;6.43;;
23519;SDS011;11936;50.820;4.336;2023-02-28T04:41:12;11.93;;;6.88;;
23519;SDS011;11936;50.820;4.336;2023-02-28T04:43:38;10.57;;;6.68;;
23519;SDS011;11936;50.820;4.336;2023-02-28T04:46:04;11.60;;;6.88;;
23519;SDS011;11936;50.820;4.336;2023-02-28T04:48:32;11.43;;;6.80;;
23519;SDS011;11936;50.820;4.336;2023-02-28T04:51:03;11.98;;;6.78;;
23519;SDS011;11936;50.820;4.336;2023-02-28T04:53:31;12.07;;;7.65;;
23519;SDS011;11936;50.820;4.336;2023-02-28T04:55:57;11.32;;;7.18;;
23519;SDS011;11936;50.820;4.336;2023-02-28T04:58:22;12.13;;;6.50;;
23519;SDS011;11936;50.820;4.336;2023-02-28T05:00:49;10.85;;;7.10;;
23519;SDS011;11936;50.820;4.336;2023-02-28T05:03:15;10.25;;;7.10;;
23519;SDS011;11936;50.820;4.336;2023-02-28T05:05:41;15.77;;;6.65;;
23519;SDS011;11936;50.820;4.336;2023-02-28T05:08:06;14.02;;;7.13;;
23519;SDS011;11936;50.820;4.336;2023-02-28T05:10:32;11.95;;;6.65;;
23519;SDS011;11936;50.820;4.336;2023-02-28T05:12:58;14.95;;;6.60;;
23519;SDS011;11936;50.820;4.336;2023-02-28T05:15:24;9.43;;;5.93;;
23519;SDS011;11936;50.820;4.336;2023-02-28T05:17:50;10.63;;;7.28;;
23519;SDS011;11936;50.820;4.336;2023-02-28T05:20:15;13.63;;;7.13;;
23519;SDS011;11936;50.820;4.336;2023-02-28T05:22:42;10.80;;;6.95;;
23519;SDS011;11936;50.820;4.336;2023-02-28T05:25:18;15.05;;;6.75;;
23519;SDS011;11936;50.820;4.336;2023-02-28T05:27:45;10.98;;;7.38;;
23519;SDS011;11936;50.820;4.336;2023-02-28T05:30:11;9.32;;;6.85;;
23519;SDS011;11936;50.820;4.336;2023-02-28T05:32:40;9.68;;;6.68;;
23519;SDS011;11936;50.820;4.336;2023-02-28T05:35:10;10.15;;;7.22;;
23519;SDS011;11936;50.820;4.336;2023-02-28T05:37:37;13.80;;;8.27;;
23519;SDS011;11936;50.820;4.336;2023-02-28T05:40:03;12.98;;;6.43;;
23519;SDS011;11936;50.820;4.336;2023-02-28T05:42:31;15.70;;;6.72;;
23519;SDS011;11936;50.820;4.336;2023-02-28T05:44:57;12.98;;;7.07;;
23519;SDS011;11936;50.820;4.336;2023-02-28T05:47:23;14.13;;;6.70;;
23519;SDS011;11936;50.820;4.336;2023-02-28T05:49:49;8.43;;;6.68;;
23519;SDS011;11936;50.820;4.336;2023-02-28T05:52:14;11.00;;;6.85;;
23519;SDS011;11936;50.820;4.336;2023-02-28T05:54:40;18.75;;;7.05;;
23519;SDS011;11936;50.820;4.336;2023-02-28T05:57:06;17.83;;;7.63;;
23519;SDS011;11936;50.820;4.336;2023-02-28T05:59:32;14.02;;;7.65;;
23519;SDS011;11936;50.820;4.336;2023-02-28T06:01:58;17.70;;;7.68;;
23519;SDS011;11936;50.820;4.336;2023-02-28T06:04:23;18.00;;;6.93;;
23519;SDS011;11936;50.820;4.336;2023-02-28T06:06:49;13.55;;;6.93;;
23519;SDS011;11936;50.820;4.336;2023-02-28T06:09:15;16.92;;;7.85;;
23519;SDS011;11936;50.820;4.336;2023-02-28T06:11:42;14.20;;;7.63;;
23519;SDS011;11936;50.820;4.336;2023-02-28T06:14:12;9.57;;;6.50;;
23519;SDS011;11936;50.820;4.336;2023-02-28T06:16:41;12.48;;;6.97;;
23519;SDS011;11936;50.820;4.336;2023-02-28T06:19:07;15.88;;;7.10;;
23519;SDS011;11936;50.820;4.336;2023-02-28T06:21:33;18.80;;;6.72;;
23519;SDS011;11936;50.820;4.336;2023-02-28T06:23:59;13.18;;;7.43;;
23519;SDS011;11936;50.820;4.336;2023-02-28T06:26:25;10.32;;;6.57;;
23519;SDS011;11936;50.820;4.336;2023-02-28T06:28:51;17.73;;;7.43;;
23519;SDS011;11936;50.820;4.336;2023-02-28T06:31:17;14.20;;;7.28;;
23519;SDS011;11936;50.820;4.336;2023-02-28T06:33:43;11.75;;;6.60;;
23519;SDS011;11936;50.820;4.336;2023-02-28T06:36:10;14.05;;;6.68;;
23519;SDS011;11936;50.820;4.336;2023-02-28T06:38:37;15.63;;;7.60;;
23519;SDS011;11936;50.820;4.336;2023-02-28T06:41:06;12.57;;;7.15;;
23519;SDS011;11936;50.820;4.336;2023-02-28T06:43:34;8.10;;;6.25;;
23519;SDS011;11936;50.820;4.336;2023-02-28T06:46:02;12.30;;;6.97;;
23519;SDS011;11936;50.820;4.336;2023-02-28T06:51:06;12.98;;;6.20;;
23519;SDS011;11936;50.820;4.336;2023-02-28T06:53:36;13.32;;;6.65;;
23519;SDS011;11936;50.820;4.336;2023-02-28T06:56:09;15.07;;;6.63;;
23519;SDS011;11936;50.820;4.336;2023-02-28T06:58:36;22.13;;;7.03;;
23519;SDS011;11936;50.820;4.336;2023-02-28T07:01:03;22.55;;;6.75;;
23519;SDS011;11936;50.820;4.336;2023-02-28T07:03:30;16.35;;;6.88;;
23519;SDS011;11936;50.820;4.336;2023-02-28T07:05:55;9.25;;;6.28;;
23519;SDS011;11936;50.820;4.336;2023-02-28T07:08:22;12.10;;;6.70;;
23519;SDS011;11936;50.820;4.336;2023-02-28T07:10:51;11.40;;;6.60;;
23519;SDS011;11936;50.820;4.336;2023-02-28T07:13:17;9.43;;;6.40;;
23519;SDS011;11936;50.820;4.336;2023-02-28T07:15:42;15.85;;;7.10;;
23519;SDS011;11936;50.820;4.336;2023-02-28T07:18:08;12.80;;;7.03;;
23519;SDS011;11936;50.820;4.336;2023-02-28T07:20:34;18.50;;;7.97;;
23519;SDS011;11936;50.820;4.336;2023-02-28T07:23:00;11.80;;;6.88;;
23519;SDS011;11936;50.820;4.336;2023-02-28T07:25:26;14.15;;;6.60;;
23519;SDS011;11936;50.820;4.336;2023-02-28T07:27:53;12.18;;;6.65;;
23519;SDS011;11936;50.820;4.336;2023-02-28T07:30:20;17.13;;;7.45;;
23519;SDS011;11936;50.820;4.336;2023-02-28T07:32:45;12.80;;;7.55;;
23519;SDS011;11936;50.820;4.336;2023-02-28T07:35:11;16.58;;;6.50;;
23519;SDS011;11936;50.820;4.336;2023-02-28T07:37:37;20.25;;;6.70;;
23519;SDS011;11936;50.820;4.336;2023-02-28T07:40:03;15.77;;;6.18;;
23519;SDS011;11936;50.820;4.336;2023-02-28T07:42:31;12.13;;;6.40;;
23519;SDS011;11936;50.820;4.336;2023-02-28T07:44:57;18.02;;;6.43;;
23519;SDS011;11936;50.820;4.336;2023-02-28T07:47:23;9.25;;;5.57;;
23519;SDS011;11936;50.820;4.336;2023-02-28T07:49:49;17.20;;;5.32;;
23519;SDS011;11936;50.820;4.336;2023-02-28T07:52:15;11.20;;;5.75;;
23519;SDS011;11936;50.820;4.336;2023-02-28T07:54:40;12.32;;;5.38;;
23519;SDS011;11936;50.820;4.336;2023-02-28T07:57:06;13.45;;;5.38;;
23519;SDS011;11936;50.820;4.336;2023-02-28T07:59:31;12.63;;;5.15;;
23519;SDS011;11936;50.820;4.336;2023-02-28T08:01:57;15.55;;;5.35;;
23519;SDS011;11936;50.820;4.336;2023-02-28T08:04:24;9.38;;;4.88;;
23519;SDS011;11936;50.820;4.336;2023-02-28T08:06:49;11.20;;;5.32;;
23519;SDS011;11936;50.820;4.336;2023-02-28T08:09:17;7.55;;;4.78;;
23519;SDS011;11936;50.820;4.336;2023-02-28T08:11:42;13.98;;;5.82;;
23519;SDS011;11936;50.820;4.336;2023-02-28T08:14:08;8.38;;;4.30;;
23519;SDS011;11936;50.820;4.336;2023-02-28T08:16:33;7.90;;;4.57;;
23519;SDS011;11936;50.820;4.336;2023-02-28T08:18:59;11.23;;;4.63;;
23519;SDS011;11936;50.820;4.336;2023-02-28T08:21:24;12.13;;;4.25;;
23519;SDS011;11936;50.820;4.336;2023-02-28T08:23:50;11.95;;;4.38;;
23519;SDS011;11936;50.820;4.336;2023-02-28T08:26:16;7.53;;;4.20;;
23519;SDS011;11936;50.820;4.336;2023-02-28T08:28:43;26.60;;;4.35;;
23519;SDS011;11936;50.820;4.336;2023-02-28T08:31:12;6.32;;;3.95;;
23519;SDS011;11936;50.820;4.336;2023-02-28T08:33:39;21.80;;;4.47;;
23519;SDS011;11936;50.820;4.336;2023-02-28T08:36:06;43.35;;;6.43;;
23519;SDS011;11936;50.820;4.336;2023-02-28T08:38:33;7.57;;;4.22;;
23519;SDS011;11936;50.820;4.336;2023-02-28T08:41:01;7.85;;;3.35;;
23519;SDS011;11936;50.820;4.336;2023-02-28T08:43:30;8.82;;;4.68;;
23519;SDS011;11936;50.820;4.336;2023-02-28T08:45:56;7.05;;;3.30;;
23519;SDS011;11936;50.820;4.336;2023-02-28T08:48:23;12.07;;;4.28;;
23519;SDS011;11936;50.820;4.336;2023-02-28T08:50:56;13.95;;;3.83;;
23519;SDS011;11936;50.820;4.336;2023-02-28T08:53:38;11.38;;;4.82;;
23519;SDS011;11936;50.820;4.336;2023-02-28T08:56:06;8.40;;;3.70;;
23519;SDS011;11936;50.820;4.336;2023-02-28T08:58:38;24.98;;;4.80;;
23519;SDS011;11936;50.820;4.336;2023-02-28T09:01:24;5.38;;;3.08;;
23519;SDS011;11936;50.820;4.336;2023-02-28T09:03:52;21.60;;;5.13;;
23519;SDS011;11936;50.820;4.336;2023-02-28T09:06:18;7.32;;;3.70;;
23519;SDS011;11936;50.820;4.336;2023-02-28T09:08:45;7.95;;;4.15;;
23519;SDS011;11936;50.820;4.336;2023-02-28T09:11:11;10.45;;;4.07;;
23519;SDS011;11936;50.820;4.336;2023-02-28T09:13:38;8.98;;;3.60;;
23519;SDS011;11936;50.820;4.336;2023-02-28T09:16:04;5.22;;;3.47;;
23519;SDS011;11936;50.820;4.336;2023-02-28T09:18:31;11.82;;;3.72;;
23519;SDS011;11936;50.820;4.336;2023-02-28T09:20:59;11.18;;;3.80;;
23519;SDS011;11936;50.820;4.336;2023-02-28T09:23:31;6.50;;;3.13;;
23519;SDS011;11936;50.820;4.336;2023-02-28T09:25:56;10.43;;;3.17;;
23519;SDS011;11936;50.820;4.336;2023-02-28T09:28:22;10.48;;;3.70;;
23519;SDS011;11936;50.820;4.336;2023-02-28T09:30:49;10.80;;;3.70;;
23519;SDS011;11936;50.820;4.336;2023-02-28T09:33:17;7.55;;;3.58;;
23519;SDS011;11936;50.820;4.336;2023-02-28T09:35:50;10.93;;;3.30;;
23519;SDS011;11936;50.820;4.336;2023-02-28T09:38:21;12.52;;;3.50;;
23519;SDS011;11936;50.820;4.336;2023-02-28T09:40:51;6.57;;;3.13;;
23519;SDS011;11936;50.820;4.336;2023-02-28T09:43:45;6.40;;;2.80;;
23519;SDS011;11936;50.820;4.336;2023-02-28T09:46:18;5.18;;;3.33;;
23519;SDS011;11936;50.820;4.336;2023-02-28T09:49:02;9.73;;;3.10;;
23519;SDS011;11936;50.820;4.336;2023-02-28T09:51:40;7.65;;;2.80;;
23519;SDS011;11936;50.820;4.336;2023-02-28T09:54:16;13.90;;;3.42;;
23519;SDS011;11936;50.820;4.336;2023-02-28T09:56:46;6.25;;;2.85;;
23519;SDS011;11936;50.820;4.336;2023-02-28T09:59:29;7.03;;;3.10;;
23519;SDS011;11936;50.820;4.336;2023-02-28T10:05:27;4.05;;;2.47;;
23519;SDS011;11936;50.820;4.336;2023-02-28T10:08:01;13.98;;;3.17;;
23519;SDS011;11936;50.820;4.336;2023-02-28T10:16:01;6.40;;;2.90;;
23519;SDS011;11936;50.820;4.336;2023-02-28T10:21:47;12.77;;;2.70;;
23519;SDS011;11936;50.820;4.336;2023-02-28T10:24:28;4.90;;;2.35;;
23519;SDS011;11936;50.820;4.336;2023-02-28T10:27:14;8.60;;;3.15;;
23519;SDS011;11936;50.820;4.336;2023-02-28T10:29:49;5.20;;;2.38;;
23519;SDS011;11936;50.820;4.336;2023-02-28T10:32:17;5.25;;;3.20;;
23519;SDS011;11936;50.820;4.336;2023-02-28T10:34:49;5.10;;;2.65;;
23519;SDS011;11936;50.820;4.336;2023-02-28T10:37:25;13.50;;;3.75;;
23519;SDS011;11936;50.820;4.336;2023-02-28T10:39:52;6.13;;;2.83;;
23519;SDS011;11936;50.820;4.336;2023-02-28T10:42:25;11.70;;;3.42;;
23519;SDS011;11936;50.820;4.336;2023-02-28T10:50:26;6.25;;;2.03;;
23519;SDS011;11936;50.820;4.336;2023-02-28T10:53:48;6.13;;;2.50;;
23519;SDS011;11936;50.820;4.336;2023-02-28T10:56:34;6.68;;;2.40;;
23519;SDS011;11936;50.820;4.336;2023-02-28T10:58:48;7.30;;;2.63;;
23519;SDS011;11936;50.820;4.336;2023-02-28T11:01:15;8.10;;;2.22;;
23519;SDS011;11936;50.820;4.336;2023-02-28T11:03:43;6.60;;;2.00;;
23519;SDS011;11936;50.820;4.336;2023-02-28T11:06:13;9.38;;;2.70;;
23519;SDS011;11936;50.820;4.336;2023-02-28T11:08:48;5.25;;;2.15;;
23519;SDS011;11936;50.820;4.336;2023-02-28T11:11:18;7.72;;;1.95;;
23519;SDS011;11936;50.820;4.336;2023-02-28T11:13:47;4.53;;;2.05;;
23519;SDS011;11936;50.820;4.336;2023-02-28T11:16:16;4.15;;;2.47;;
23519;SDS011;11936;50.820;4.336;2023-02-28T11:18:55;16.30;;;3.03;;
23519;SDS011;11936;50.820;4.336;2023-02-28T11:21:22;5.65;;;2.78;;
23519;SDS011;11936;50.820;4.336;2023-02-28T11:24:04;19.45;;;3.08;;
23519;SDS011;11936;50.820;4.336;2023-02-28T11:26:47;2.15;;;1.95;;
23519;SDS011;11936;50.820;4.336;2023-02-28T11:29:26;9.85;;;2.55;;
23519;SDS011;11936;50.820;4.336;2023-02-28T11:34:34;3.72;;;2.10;;
23519;SDS011;11936;50.820;4.336;2023-02-28T11:37:05;3.08;;;2.75;;
23519;SDS011;11936;50.820;4.336;2023-02-28T11:39:37;3.80;;;2.33;;
23519;SDS011;11936;50.820;4.336;2023-02-28T11:47:47;14.82;;;2.83;;
23519;SDS011;11936;50.820;4.336;2023-02-28T11:53:05;3.97;;;2.63;;
23519;SDS011;11936;50.820;4.336;2023-02-28T11:56:19;3.25;;;2.40;;
23519;SDS011;11936;50.820;4.336;2023-02-28T12:20:53;7.03;;;2.45;;
23519;SDS011;11936;50.820;4.336;2023-02-28T12:23:35;3.67;;;2.60;;
23519;SDS011;11936;50.820;4.336;2023-02-28T12:26:15;5.43;;;2.65;;
23519;SDS011;11936;50.820;4.336;2023-02-28T12:28:59;6.57;;;2.50;;
23519;SDS011;11936;50.820;4.336;2023-02-28T12:31:36;7.03;;;2.17;;
23519;SDS011;11936;50.820;4.336;2023-02-28T12:34:16;4.38;;;2.90;;
23519;SDS011;11936;50.820;4.336;2023-02-28T12:36:50;4.35;;;2.47;;
23519;SDS011;11936;50.820;4.336;2023-02-28T12:39:20;3.15;;;2.65;;
23519;SDS011;11936;50.820;4.336;2023-02-28T12:41:53;4.45;;;2.50;;
23519;SDS011;11936;50.820;4.336;2023-02-28T12:44:28;5.00;;;2.78;;
23519;SDS011;11936;50.820;4.336;2023-02-28T12:46:57;7.00;;;2.60;;
23519;SDS011;11936;50.820;4.336;2023-02-28T12:49:31;5.20;;;2.63;;
23519;SDS011;11936;50.820;4.336;2023-02-28T12:52:02;9.80;;;3.10;;
23519;SDS011;11936;50.820;4.336;2023-02-28T12:54:35;9.80;;;3.08;;
23519;SDS011;11936;50.820;4.336;2023-02-28T13:09:54;7.30;;;2.60;;
23519;SDS011;11936;50.820;4.336;2023-02-28T13:12:22;8.75;;;2.47;;
23519;SDS011;11936;50.820;4.336;2023-02-28T13:14:49;11.20;;;2.53;;
23519;SDS011;11936;50.820;4.336;2023-02-28T13:17:19;12.65;;;2.30;;
23519;SDS011;11936;50.820;4.336;2023-02-28T13:24:54;15.65;;;3.53;;
23519;SDS011;11936;50.820;4.336;2023-02-28T13:52:48;10.77;;;3.58;;
23519;SDS011;11936;50.820;4.336;2023-02-28T13:55:38;12.77;;;3.10;;
23519;SDS011;11936;50.820;4.336;2023-02-28T14:01:21;4.80;;;2.38;;
23519;SDS011;11936;50.820;4.336;2023-02-28T14:04:02;9.23;;;2.67;;
23519;SDS011;11936;50.820;4.336;2023-02-28T14:06:38;12.07;;;2.75;;
23519;SDS011;11936;50.820;4.336;2023-02-28T14:11:49;13.40;;;3.20;;
23519;SDS011;11936;50.820;4.336;2023-02-28T14:17:00;12.80;;;3.25;;
23519;SDS011;11936;50.820;4.336;2023-02-28T14:19:32;4.10;;;2.53;;
23519;SDS011;11936;50.820;4.336;2023-02-28T14:30:17;2.50;;;2.10;;
23519;SDS011;11936;50.820;4.336;2023-02-28T14:38:30;3.22;;;2.63;;
23519;SDS011;11936;50.820;4.336;2023-02-28T14:41:00;3.47;;;2.50;;
23519;SDS011;11936;50.820;4.336;2023-02-28T14:43:31;12.23;;;2.65;;
23519;SDS011;11936;50.820;4.336;2023-02-28T14:45:58;5.50;;;2.70;;
23519;SDS011;11936;50.820;4.336;2023-02-28T14:48:26;17.10;;;3.45;;
23519;SDS011;11936;50.820;4.336;2023-02-28T14:50:57;7.45;;;2.25;;
23519;SDS011;11936;50.820;4.336;2023-02-28T14:53:27;2.90;;;2.50;;
23519;SDS011;11936;50.820;4.336;2023-02-28T14:55:55;13.95;;;2.72;;
23519;SDS011;11936;50.820;4.336;2023-02-28T14:58:22;10.88;;;2.67;;
23519;SDS011;11936;50.820;4.336;2023-02-28T15:00:53;7.43;;;3.00;;
23519;SDS011;11936;50.820;4.336;2023-02-28T15:03:34;14.50;;;3.50;;
23519;SDS011;11936;50.820;4.336;2023-02-28T15:06:02;4.63;;;2.47;;
23519;SDS011;11936;50.820;4.336;2023-02-28T15:08:37;9.52;;;3.15;;
23519;SDS011;11936;50.820;4.336;2023-02-28T15:11:11;5.50;;;3.25;;
23519;SDS011;11936;50.820;4.336;2023-02-28T15:13:45;26.63;;;4.47;;
23519;SDS011;11936;50.820;4.336;2023-02-28T15:16:17;8.48;;;3.70;;
23519;SDS011;11936;50.820;4.336;2023-02-28T15:18:51;4.35;;;2.78;;
23519;SDS011;11936;50.820;4.336;2023-02-28T15:21:25;10.32;;;3.38;;
23519;SDS011;11936;50.820;4.336;2023-02-28T15:23:57;7.53;;;3.10;;
23519;SDS011;11936;50.820;4.336;2023-02-28T15:26:30;22.77;;;3.30;;
23519;SDS011;11936;50.820;4.336;2023-02-28T15:29:20;11.35;;;3.45;;
23519;SDS011;11936;50.820;4.336;2023-02-28T15:31:55;6.20;;;4.38;;
23519;SDS011;11936;50.820;4.336;2023-02-28T15:34:33;8.00;;;3.90;;
23519;SDS011;11936;50.820;4.336;2023-02-28T15:39:52;8.57;;;2.78;;
23519;SDS011;11936;50.820;4.336;2023-02-28T15:42:20;5.18;;;2.90;;
23519;SDS011;11936;50.820;4.336;2023-02-28T15:44:47;12.32;;;3.42;;
23519;SDS011;11936;50.820;4.336;2023-02-28T15:47:21;3.67;;;3.30;;
23519;SDS011;11936;50.820;4.336;2023-02-28T15:49:49;8.63;;;3.40;;
23519;SDS011;11936;50.820;4.336;2023-02-28T15:52:44;6.80;;;3.25;;
23519;SDS011;11936;50.820;4.336;2023-02-28T15:55:12;21.08;;;3.67;;
23519;SDS011;11936;50.820;4.336;2023-02-28T15:57:45;11.27;;;2.90;;
23519;SDS011;11936;50.820;4.336;2023-02-28T16:00:13;10.73;;;3.83;;
23519;SDS011;11936;50.820;4.336;2023-02-28T16:02:41;9.13;;;2.95;;
23519;SDS011;11936;50.820;4.336;2023-02-28T16:07:36;9.45;;;3.00;;
23519;SDS011;11936;50.820;4.336;2023-02-28T16:10:09;5.25;;;3.13;;
23519;SDS011;11936;50.820;4.336;2023-02-28T16:12:37;10.75;;;2.90;;
23519;SDS011;11936;50.820;4.336;2023-02-28T16:15:08;17.38;;;3.60;;
23519;SDS011;11936;50.820;4.336;2023-02-28T16:17:42;28.35;;;4.63;;
23519;SDS011;11936;50.820;4.336;2023-02-28T16:20:14;10.80;;;2.90;;
23519;SDS011;11936;50.820;4.336;2023-02-28T16:22:45;17.08;;;3.95;;
23519;SDS011;11936;50.820;4.336;2023-02-28T16:25:15;6.75;;;3.00;;
23519;SDS011;11936;50.820;4.336;2023-02-28T16:27:42;9.30;;;3.65;;
23519;SDS011;11936;50.820;4.336;2023-02-28T16:30:18;4.43;;;2.58;;
23519;SDS011;11936;50.820;4.336;2023-02-28T16:35:15;10.57;;;3.65;;
23519;SDS011;11936;50.820;4.336;2023-02-28T16:37:41;9.73;;;3.30;;
23519;SDS011;11936;50.820;4.336;2023-02-28T16:40:08;5.75;;;2.80;;
23519;SDS011;11936;50.820;4.336;2023-02-28T16:42:56;8.35;;;3.20;;
23519;SDS011;11936;50.820;4.336;2023-02-28T16:45:25;6.43;;;3.50;;
23519;SDS011;11936;50.820;4.336;2023-02-28T16:47:52;5.80;;;3.72;;
23519;SDS011;11936;50.820;4.336;2023-02-28T16:50:20;10.68;;;3.75;;
23519;SDS011;11936;50.820;4.336;2023-02-28T16:52:47;8.07;;;3.28;;
23519;SDS011;11936;50.820;4.336;2023-02-28T16:55:14;6.22;;;3.75;;
23519;SDS011;11936;50.820;4.336;2023-02-28T16:57:40;12.20;;;3.13;;
23519;SDS011;11936;50.820;4.336;2023-02-28T17:00:08;13.60;;;3.03;;
23519;SDS011;11936;50.820;4.336;2023-02-28T17:05:01;6.20;;;3.00;;
23519;SDS011;11936;50.820;4.336;2023-02-28T17:07:27;4.00;;;2.63;;
23519;SDS011;11936;50.820;4.336;2023-02-28T17:09:53;3.08;;;2.30;;
23519;SDS011;11936;50.820;4.336;2023-02-28T17:12:18;7.80;;;3.13;;
23519;SDS011;11936;50.820;4.336;2023-02-28T17:14:44;4.00;;;2.65;;
23519;SDS011;11936;50.820;4.336;2023-02-28T17:17:13;6.25;;;3.42;;
23519;SDS011;11936;50.820;4.336;2023-02-28T17:19:43;11.07;;;3.22;;
23519;SDS011;11936;50.820;4.336;2023-02-28T17:22:09;9.88;;;3.13;;
23519;SDS011;11936;50.820;4.336;2023-02-28T17:24:35;6.78;;;3.45;;
23519;SDS011;11936;50.820;4.336;2023-02-28T17:27:00;11.25;;;3.58;;
23519;SDS011;11936;50.820;4.336;2023-02-28T17:29:26;7.60;;;2.67;;
23519;SDS011;11936;50.820;4.336;2023-02-28T17:31:52;8.00;;;3.13;;
23519;SDS011;11936;50.820;4.336;2023-02-28T17:34:18;5.40;;;2.75;;
23519;SDS011;11936;50.820;4.336;2023-02-28T17:36:49;16.05;;;3.70;;
23519;SDS011;11936;50.820;4.336;2023-02-28T17:39:17;7.15;;;2.95;;
23519;SDS011;11936;50.820;4.336;2023-02-28T17:41:49;7.22;;;3.42;;